<?xml version="1.0" encoding="UTF-8" standalone="no" ?>
<gpx xmlns="http://www.topografix.com/GPX/1/1" xmlns:xsi="http://www.w3.org/2001/XMLSchema-instance" xsi:schemaLocation="http://www.topografix.com/GPX/1/1 http://www.topografix.com/GPX/1/1/gpx.xsd" version="1.1" creator="VisuGPX - https://www.visugpx.com">
  <metadata>
    <name>Vacances 2021</name>
  </metadata>
  <trk>
    <name><![CDATA[Journal actif: 2021-08-05 17:25]]></name>
    <trkseg>
      <trkpt lat="46.66996" lon="0.35999">
        <ele>78.97</ele>
        <time>2021-08-05T19:25:06Z</time>
      </trkpt>
      <trkpt lat="46.66938" lon="0.36029">
        <ele>80.41</ele>
        <time>2021-08-05T19:25:16Z</time>
      </trkpt>
      <trkpt lat="46.66904" lon="0.36053">
        <ele>82.33</ele>
        <time>2021-08-05T19:25:22Z</time>
      </trkpt>
      <trkpt lat="46.669" lon="0.36055">
        <ele>82.33</ele>
        <time>2021-08-05T19:25:23Z</time>
      </trkpt>
      <trkpt lat="46.66895" lon="0.36048">
        <ele>81.85</ele>
        <time>2021-08-05T19:25:24Z</time>
      </trkpt>
      <trkpt lat="46.66878" lon="0.36035">
        <ele>82.33</ele>
        <time>2021-08-05T19:25:27Z</time>
      </trkpt>
      <trkpt lat="46.66872" lon="0.36035">
        <ele>82.33</ele>
        <time>2021-08-05T19:25:28Z</time>
      </trkpt>
      <trkpt lat="46.66865" lon="0.36034">
        <ele>82.81</ele>
        <time>2021-08-05T19:25:29Z</time>
      </trkpt>
      <trkpt lat="46.66856" lon="0.36038">
        <ele>82.81</ele>
        <time>2021-08-05T19:25:30Z</time>
      </trkpt>
      <trkpt lat="46.66851" lon="0.36043">
        <ele>83.29</ele>
        <time>2021-08-05T19:25:31Z</time>
      </trkpt>
      <trkpt lat="46.66845" lon="0.36053">
        <ele>83.77</ele>
        <time>2021-08-05T19:25:32Z</time>
      </trkpt>
      <trkpt lat="46.66827" lon="0.3606">
        <ele>84.25</ele>
        <time>2021-08-05T19:25:33Z</time>
      </trkpt>
      <trkpt lat="46.66827" lon="0.3606">
        <ele>84.25</ele>
        <time>2021-08-05T19:25:34Z</time>
      </trkpt>
      <trkpt lat="46.66809" lon="0.36054">
        <ele>83.77</ele>
        <time>2021-08-05T19:25:35Z</time>
      </trkpt>
      <trkpt lat="46.66809" lon="0.36054">
        <ele>83.77</ele>
        <time>2021-08-05T19:25:36Z</time>
      </trkpt>
      <trkpt lat="46.66698" lon="0.36024">
        <ele>86.66</ele>
        <time>2021-08-05T19:25:47Z</time>
      </trkpt>
      <trkpt lat="46.66528" lon="0.36022">
        <ele>90.5</ele>
        <time>2021-08-05T19:26:01Z</time>
      </trkpt>
      <trkpt lat="46.66414" lon="0.36061">
        <ele>94.83</ele>
        <time>2021-08-05T19:26:11Z</time>
      </trkpt>
      <trkpt lat="46.66346" lon="0.36108">
        <ele>97.23</ele>
        <time>2021-08-05T19:26:22Z</time>
      </trkpt>
      <trkpt lat="46.66343" lon="0.36111">
        <ele>97.23</ele>
        <time>2021-08-05T19:26:23Z</time>
      </trkpt>
      <trkpt lat="46.66339" lon="0.36108">
        <ele>96.75</ele>
        <time>2021-08-05T19:26:24Z</time>
      </trkpt>
      <trkpt lat="46.66336" lon="0.36105">
        <ele>96.75</ele>
        <time>2021-08-05T19:26:25Z</time>
      </trkpt>
      <trkpt lat="46.66331" lon="0.361">
        <ele>96.75</ele>
        <time>2021-08-05T19:26:26Z</time>
      </trkpt>
      <trkpt lat="46.66323" lon="0.36094">
        <ele>95.79</ele>
        <time>2021-08-05T19:26:27Z</time>
      </trkpt>
      <trkpt lat="46.66316" lon="0.36093">
        <ele>95.31</ele>
        <time>2021-08-05T19:26:28Z</time>
      </trkpt>
      <trkpt lat="46.66306" lon="0.36093">
        <ele>95.31</ele>
        <time>2021-08-05T19:26:29Z</time>
      </trkpt>
      <trkpt lat="46.66299" lon="0.36098">
        <ele>95.31</ele>
        <time>2021-08-05T19:26:30Z</time>
      </trkpt>
      <trkpt lat="46.66293" lon="0.36103">
        <ele>95.79</ele>
        <time>2021-08-05T19:26:31Z</time>
      </trkpt>
      <trkpt lat="46.66285" lon="0.36125">
        <ele>95.79</ele>
        <time>2021-08-05T19:26:32Z</time>
      </trkpt>
      <trkpt lat="46.66282" lon="0.36134">
        <ele>94.83</ele>
        <time>2021-08-05T19:26:33Z</time>
      </trkpt>
      <trkpt lat="46.66285" lon="0.36145">
        <ele>93.87</ele>
        <time>2021-08-05T19:26:34Z</time>
      </trkpt>
      <trkpt lat="46.66285" lon="0.36145">
        <ele>93.39</ele>
        <time>2021-08-05T19:26:35Z</time>
      </trkpt>
      <trkpt lat="46.66284" lon="0.36176">
        <ele>92.9</ele>
        <time>2021-08-05T19:26:36Z</time>
      </trkpt>
      <trkpt lat="46.66279" lon="0.36183">
        <ele>92.9</ele>
        <time>2021-08-05T19:26:37Z</time>
      </trkpt>
      <trkpt lat="46.66272" lon="0.3619">
        <ele>92.42</ele>
        <time>2021-08-05T19:26:38Z</time>
      </trkpt>
      <trkpt lat="46.66207" lon="0.363">
        <ele>90.02</ele>
        <time>2021-08-05T19:26:48Z</time>
      </trkpt>
      <trkpt lat="46.66144" lon="0.36475">
        <ele>85.21</ele>
        <time>2021-08-05T19:26:59Z</time>
      </trkpt>
      <trkpt lat="46.6613" lon="0.36525">
        <ele>83.29</ele>
        <time>2021-08-05T19:27:04Z</time>
      </trkpt>
      <trkpt lat="46.66128" lon="0.36538">
        <ele>84.25</ele>
        <time>2021-08-05T19:27:05Z</time>
      </trkpt>
      <trkpt lat="46.66128" lon="0.36538">
        <ele>84.25</ele>
        <time>2021-08-05T19:27:06Z</time>
      </trkpt>
      <trkpt lat="46.66115" lon="0.36538">
        <ele>84.73</ele>
        <time>2021-08-05T19:27:07Z</time>
      </trkpt>
      <trkpt lat="46.66109" lon="0.36538">
        <ele>85.21</ele>
        <time>2021-08-05T19:27:08Z</time>
      </trkpt>
      <trkpt lat="46.66086" lon="0.36558">
        <ele>85.21</ele>
        <time>2021-08-05T19:27:12Z</time>
      </trkpt>
      <trkpt lat="46.6608" lon="0.36558">
        <ele>85.21</ele>
        <time>2021-08-05T19:27:13Z</time>
      </trkpt>
      <trkpt lat="46.6608" lon="0.36558">
        <ele>84.73</ele>
        <time>2021-08-05T19:27:14Z</time>
      </trkpt>
      <trkpt lat="46.66076" lon="0.36556">
        <ele>84.25</ele>
        <time>2021-08-05T19:27:15Z</time>
      </trkpt>
      <trkpt lat="46.66071" lon="0.36554">
        <ele>83.77</ele>
        <time>2021-08-05T19:27:16Z</time>
      </trkpt>
      <trkpt lat="46.66066" lon="0.36553">
        <ele>84.73</ele>
        <time>2021-08-05T19:27:17Z</time>
      </trkpt>
      <trkpt lat="46.66062" lon="0.36551">
        <ele>84.25</ele>
        <time>2021-08-05T19:27:18Z</time>
      </trkpt>
      <trkpt lat="46.66052" lon="0.36546">
        <ele>84.25</ele>
        <time>2021-08-05T19:27:19Z</time>
      </trkpt>
      <trkpt lat="46.66011" lon="0.36522">
        <ele>85.69</ele>
        <time>2021-08-05T19:27:27Z</time>
      </trkpt>
      <trkpt lat="46.66006" lon="0.36519">
        <ele>86.18</ele>
        <time>2021-08-05T19:27:28Z</time>
      </trkpt>
      <trkpt lat="46.66002" lon="0.36516">
        <ele>86.18</ele>
        <time>2021-08-05T19:27:29Z</time>
      </trkpt>
      <trkpt lat="46.65999" lon="0.36515">
        <ele>86.18</ele>
        <time>2021-08-05T19:27:30Z</time>
      </trkpt>
      <trkpt lat="46.65994" lon="0.36512">
        <ele>85.21</ele>
        <time>2021-08-05T19:27:42Z</time>
      </trkpt>
      <trkpt lat="46.65994" lon="0.36512">
        <ele>85.21</ele>
        <time>2021-08-05T19:27:43Z</time>
      </trkpt>
      <trkpt lat="46.65991" lon="0.3651">
        <ele>85.21</ele>
        <time>2021-08-05T19:27:44Z</time>
      </trkpt>
      <trkpt lat="46.65989" lon="0.36509">
        <ele>85.21</ele>
        <time>2021-08-05T19:27:45Z</time>
      </trkpt>
      <trkpt lat="46.65987" lon="0.36508">
        <ele>84.73</ele>
        <time>2021-08-05T19:27:46Z</time>
      </trkpt>
      <trkpt lat="46.65985" lon="0.36507">
        <ele>84.73</ele>
        <time>2021-08-05T19:27:47Z</time>
      </trkpt>
      <trkpt lat="46.65946" lon="0.36483">
        <ele>86.66</ele>
        <time>2021-08-05T19:28:01Z</time>
      </trkpt>
      <trkpt lat="46.65932" lon="0.36475">
        <ele>86.66</ele>
        <time>2021-08-05T19:28:02Z</time>
      </trkpt>
      <trkpt lat="46.65931" lon="0.36478">
        <ele>86.66</ele>
        <time>2021-08-05T19:28:13Z</time>
      </trkpt>
      <trkpt lat="46.65931" lon="0.36481">
        <ele>86.66</ele>
        <time>2021-08-05T19:28:14Z</time>
      </trkpt>
      <trkpt lat="46.65945" lon="0.36482">
        <ele>86.66</ele>
        <time>2021-08-05T19:28:15Z</time>
      </trkpt>
      <trkpt lat="46.65947" lon="0.36484">
        <ele>86.18</ele>
        <time>2021-08-05T19:28:16Z</time>
      </trkpt>
      <trkpt lat="46.65951" lon="0.36487">
        <ele>86.66</ele>
        <time>2021-08-05T19:28:17Z</time>
      </trkpt>
      <trkpt lat="46.65956" lon="0.3649">
        <ele>86.66</ele>
        <time>2021-08-05T19:28:18Z</time>
      </trkpt>
      <trkpt lat="46.6604" lon="0.36539">
        <ele>85.21</ele>
        <time>2021-08-05T19:28:28Z</time>
      </trkpt>
      <trkpt lat="46.66075" lon="0.36556">
        <ele>84.73</ele>
        <time>2021-08-05T19:28:33Z</time>
      </trkpt>
      <trkpt lat="46.6608" lon="0.36558">
        <ele>84.73</ele>
        <time>2021-08-05T19:28:34Z</time>
      </trkpt>
      <trkpt lat="46.66084" lon="0.36574">
        <ele>84.73</ele>
        <time>2021-08-05T19:28:35Z</time>
      </trkpt>
      <trkpt lat="46.66083" lon="0.36581">
        <ele>84.73</ele>
        <time>2021-08-05T19:28:36Z</time>
      </trkpt>
      <trkpt lat="46.66083" lon="0.3659">
        <ele>84.73</ele>
        <time>2021-08-05T19:28:37Z</time>
      </trkpt>
      <trkpt lat="46.66091" lon="0.36618">
        <ele>84.25</ele>
        <time>2021-08-05T19:28:40Z</time>
      </trkpt>
      <trkpt lat="46.66103" lon="0.36637">
        <ele>84.25</ele>
        <time>2021-08-05T19:28:41Z</time>
      </trkpt>
      <trkpt lat="46.661" lon="0.36648">
        <ele>84.25</ele>
        <time>2021-08-05T19:28:42Z</time>
      </trkpt>
      <trkpt lat="46.66097" lon="0.3666">
        <ele>83.29</ele>
        <time>2021-08-05T19:28:43Z</time>
      </trkpt>
      <trkpt lat="46.66093" lon="0.36674">
        <ele>82.81</ele>
        <time>2021-08-05T19:28:44Z</time>
      </trkpt>
      <trkpt lat="46.66055" lon="0.3681">
        <ele>82.81</ele>
        <time>2021-08-05T19:28:54Z</time>
      </trkpt>
      <trkpt lat="46.66053" lon="0.36816">
        <ele>82.81</ele>
        <time>2021-08-05T19:28:55Z</time>
      </trkpt>
      <trkpt lat="46.66051" lon="0.36821">
        <ele>83.29</ele>
        <time>2021-08-05T19:28:56Z</time>
      </trkpt>
      <trkpt lat="46.66044" lon="0.36823">
        <ele>83.77</ele>
        <time>2021-08-05T19:28:57Z</time>
      </trkpt>
      <trkpt lat="46.66034" lon="0.36822">
        <ele>84.25</ele>
        <time>2021-08-05T19:28:58Z</time>
      </trkpt>
      <trkpt lat="46.66034" lon="0.36822">
        <ele>84.25</ele>
        <time>2021-08-05T19:28:59Z</time>
      </trkpt>
      <trkpt lat="46.66022" lon="0.36823">
        <ele>84.25</ele>
        <time>2021-08-05T19:29:00Z</time>
      </trkpt>
      <trkpt lat="46.66016" lon="0.36826">
        <ele>84.73</ele>
        <time>2021-08-05T19:29:01Z</time>
      </trkpt>
      <trkpt lat="46.66007" lon="0.3683">
        <ele>84.73</ele>
        <time>2021-08-05T19:29:02Z</time>
      </trkpt>
      <trkpt lat="46.65991" lon="0.36833">
        <ele>85.21</ele>
        <time>2021-08-05T19:29:05Z</time>
      </trkpt>
      <trkpt lat="46.65991" lon="0.36833">
        <ele>85.69</ele>
        <time>2021-08-05T19:29:06Z</time>
      </trkpt>
      <trkpt lat="46.65985" lon="0.36834">
        <ele>85.69</ele>
        <time>2021-08-05T19:29:07Z</time>
      </trkpt>
      <trkpt lat="46.65977" lon="0.36832">
        <ele>86.18</ele>
        <time>2021-08-05T19:29:08Z</time>
      </trkpt>
      <trkpt lat="46.65959" lon="0.36829">
        <ele>86.66</ele>
        <time>2021-08-05T19:29:09Z</time>
      </trkpt>
      <trkpt lat="46.65845" lon="0.36784">
        <ele>92.42</ele>
        <time>2021-08-05T19:29:21Z</time>
      </trkpt>
      <trkpt lat="46.65694" lon="0.36714">
        <ele>95.31</ele>
        <time>2021-08-05T19:29:32Z</time>
      </trkpt>
      <trkpt lat="46.65509" lon="0.366">
        <ele>94.83</ele>
        <time>2021-08-05T19:29:46Z</time>
      </trkpt>
      <trkpt lat="46.65495" lon="0.36582">
        <ele>94.83</ele>
        <time>2021-08-05T19:29:48Z</time>
      </trkpt>
      <trkpt lat="46.65488" lon="0.36574">
        <ele>94.35</ele>
        <time>2021-08-05T19:29:49Z</time>
      </trkpt>
      <trkpt lat="46.65481" lon="0.36562">
        <ele>93.87</ele>
        <time>2021-08-05T19:29:50Z</time>
      </trkpt>
      <trkpt lat="46.65468" lon="0.36539">
        <ele>92.9</ele>
        <time>2021-08-05T19:29:51Z</time>
      </trkpt>
      <trkpt lat="46.65468" lon="0.36539">
        <ele>91.94</ele>
        <time>2021-08-05T19:29:52Z</time>
      </trkpt>
      <trkpt lat="46.65461" lon="0.36527">
        <ele>90.98</ele>
        <time>2021-08-05T19:29:53Z</time>
      </trkpt>
      <trkpt lat="46.65448" lon="0.36504">
        <ele>91.46</ele>
        <time>2021-08-05T19:29:55Z</time>
      </trkpt>
      <trkpt lat="46.65428" lon="0.36462">
        <ele>90.5</ele>
        <time>2021-08-05T19:29:59Z</time>
      </trkpt>
      <trkpt lat="46.65426" lon="0.36453">
        <ele>90.02</ele>
        <time>2021-08-05T19:30:00Z</time>
      </trkpt>
      <trkpt lat="46.65424" lon="0.36444">
        <ele>90.02</ele>
        <time>2021-08-05T19:30:01Z</time>
      </trkpt>
      <trkpt lat="46.65422" lon="0.36429">
        <ele>90.02</ele>
        <time>2021-08-05T19:30:03Z</time>
      </trkpt>
      <trkpt lat="46.65419" lon="0.36421">
        <ele>90.02</ele>
        <time>2021-08-05T19:30:04Z</time>
      </trkpt>
      <trkpt lat="46.65416" lon="0.36415">
        <ele>90.02</ele>
        <time>2021-08-05T19:30:05Z</time>
      </trkpt>
      <trkpt lat="46.65414" lon="0.36408">
        <ele>90.5</ele>
        <time>2021-08-05T19:30:06Z</time>
      </trkpt>
      <trkpt lat="46.65409" lon="0.36407">
        <ele>90.98</ele>
        <time>2021-08-05T19:30:07Z</time>
      </trkpt>
      <trkpt lat="46.65404" lon="0.36407">
        <ele>90.98</ele>
        <time>2021-08-05T19:30:08Z</time>
      </trkpt>
      <trkpt lat="46.654" lon="0.36408">
        <ele>90.98</ele>
        <time>2021-08-05T19:30:09Z</time>
      </trkpt>
      <trkpt lat="46.65396" lon="0.36413">
        <ele>90.98</ele>
        <time>2021-08-05T19:30:10Z</time>
      </trkpt>
      <trkpt lat="46.65392" lon="0.36417">
        <ele>90.98</ele>
        <time>2021-08-05T19:30:11Z</time>
      </trkpt>
      <trkpt lat="46.65389" lon="0.36423">
        <ele>90.98</ele>
        <time>2021-08-05T19:30:12Z</time>
      </trkpt>
      <trkpt lat="46.65389" lon="0.36431">
        <ele>90.98</ele>
        <time>2021-08-05T19:30:13Z</time>
      </trkpt>
      <trkpt lat="46.65389" lon="0.36439">
        <ele>90.5</ele>
        <time>2021-08-05T19:30:14Z</time>
      </trkpt>
      <trkpt lat="46.65389" lon="0.36439">
        <ele>90.98</ele>
        <time>2021-08-05T19:30:15Z</time>
      </trkpt>
      <trkpt lat="46.65397" lon="0.36461">
        <ele>90.98</ele>
        <time>2021-08-05T19:30:16Z</time>
      </trkpt>
      <trkpt lat="46.65395" lon="0.36469">
        <ele>90.98</ele>
        <time>2021-08-05T19:30:17Z</time>
      </trkpt>
      <trkpt lat="46.65371" lon="0.36555">
        <ele>86.66</ele>
        <time>2021-08-05T19:30:25Z</time>
      </trkpt>
      <trkpt lat="46.6537" lon="0.36563">
        <ele>86.18</ele>
        <time>2021-08-05T19:30:26Z</time>
      </trkpt>
      <trkpt lat="46.65369" lon="0.3657">
        <ele>86.18</ele>
        <time>2021-08-05T19:30:27Z</time>
      </trkpt>
      <trkpt lat="46.65365" lon="0.36571">
        <ele>85.69</ele>
        <time>2021-08-05T19:30:28Z</time>
      </trkpt>
      <trkpt lat="46.65361" lon="0.3657">
        <ele>85.69</ele>
        <time>2021-08-05T19:30:29Z</time>
      </trkpt>
      <trkpt lat="46.65353" lon="0.36572">
        <ele>85.69</ele>
        <time>2021-08-05T19:30:30Z</time>
      </trkpt>
      <trkpt lat="46.65347" lon="0.36584">
        <ele>86.18</ele>
        <time>2021-08-05T19:30:31Z</time>
      </trkpt>
      <trkpt lat="46.65346" lon="0.3659">
        <ele>86.18</ele>
        <time>2021-08-05T19:30:32Z</time>
      </trkpt>
      <trkpt lat="46.65353" lon="0.366">
        <ele>86.18</ele>
        <time>2021-08-05T19:30:33Z</time>
      </trkpt>
      <trkpt lat="46.65352" lon="0.36611">
        <ele>86.66</ele>
        <time>2021-08-05T19:30:34Z</time>
      </trkpt>
      <trkpt lat="46.65349" lon="0.3662">
        <ele>86.66</ele>
        <time>2021-08-05T19:30:35Z</time>
      </trkpt>
      <trkpt lat="46.65346" lon="0.36629">
        <ele>87.14</ele>
        <time>2021-08-05T19:30:36Z</time>
      </trkpt>
      <trkpt lat="46.65343" lon="0.36639">
        <ele>86.66</ele>
        <time>2021-08-05T19:30:37Z</time>
      </trkpt>
      <trkpt lat="46.65308" lon="0.3674">
        <ele>88.1</ele>
        <time>2021-08-05T19:30:47Z</time>
      </trkpt>
      <trkpt lat="46.65306" lon="0.36747">
        <ele>87.62</ele>
        <time>2021-08-05T19:30:48Z</time>
      </trkpt>
      <trkpt lat="46.65305" lon="0.36752">
        <ele>87.62</ele>
        <time>2021-08-05T19:30:49Z</time>
      </trkpt>
      <trkpt lat="46.65298" lon="0.36754">
        <ele>87.14</ele>
        <time>2021-08-05T19:30:50Z</time>
      </trkpt>
      <trkpt lat="46.65296" lon="0.36751">
        <ele>86.66</ele>
        <time>2021-08-05T19:30:51Z</time>
      </trkpt>
      <trkpt lat="46.65286" lon="0.36749">
        <ele>86.18</ele>
        <time>2021-08-05T19:30:52Z</time>
      </trkpt>
      <trkpt lat="46.65286" lon="0.36749">
        <ele>85.69</ele>
        <time>2021-08-05T19:30:53Z</time>
      </trkpt>
      <trkpt lat="46.65276" lon="0.36747">
        <ele>86.18</ele>
        <time>2021-08-05T19:30:54Z</time>
      </trkpt>
      <trkpt lat="46.65271" lon="0.36743">
        <ele>86.18</ele>
        <time>2021-08-05T19:30:55Z</time>
      </trkpt>
      <trkpt lat="46.65271" lon="0.36743">
        <ele>85.69</ele>
        <time>2021-08-05T19:30:56Z</time>
      </trkpt>
      <trkpt lat="46.65253" lon="0.3672">
        <ele>85.69</ele>
        <time>2021-08-05T19:31:04Z</time>
      </trkpt>
      <trkpt lat="46.65253" lon="0.3672">
        <ele>85.69</ele>
        <time>2021-08-05T19:31:08Z</time>
      </trkpt>
      <trkpt lat="46.65256" lon="0.36713">
        <ele>85.69</ele>
        <time>2021-08-05T19:31:09Z</time>
      </trkpt>
      <trkpt lat="46.65257" lon="0.36711">
        <ele>85.69</ele>
        <time>2021-08-05T19:31:10Z</time>
      </trkpt>
      <trkpt lat="46.65273" lon="0.36646">
        <ele>87.62</ele>
        <time>2021-08-05T19:31:24Z</time>
      </trkpt>
    </trkseg>
  </trk>
</gpx>